Terminal Aerodrome Forecast
Issued by NWS Duluth, MN

Home | Current Version | Previous Version | Text Only | Print | Product List | Glossary On
Versions: 1 2 3 4 5 6 7 8 9 10 11 12 13 14 15 16 17 18 19 20 21 22 23
000
FTUS43 KDLH 040610 AAA
TAFDLH
TAF AMD
KDLH 040610Z 0406/0506 16007KT P6SM VCSH BKN018
     FM040800 16009KT 3SM -SN OVC012
     FM041100 15010KT 2SM -SN OVC008
     FM041500 16011KT 1SM -SN OVC008
     FM042100 20010KT 2SM -SN OVC008
     FM050200 24011KT 3SM -SN OVC015
     FM050400 26010KT P6SM OVC025=

USA.gov is the U.S. government's official web portal to all federal, state and local government web resources and services.